Time;durP1;ratioP1;P1;durP2;ratioP2;P2;SDS_P1;SDS_P2;PMS_P1;PMS_P2;Temp;Humidity;BMP_temperature;BMP_pressure;BME280_temperature;BME280_humidity;BME280_pressure;Samples;Min_cycle;Max_cycle;Signal;HPM_P1;HPM_P2
2022/07/02 00:01:05;;;;;;;0.10;0.10;;;;;;;22.23;53.26;101837.09;5117130;27;20058;-40
2022/07/02 00:03:36;;;;;;;0.10;0.10;;;;;;;22.24;53.21;101835.19;5117725;27;20050;-40
2022/07/02 00:06:03;;;;;;;0.10;0.10;;;;;;;22.24;53.21;101833.25;5135534;27;20084;-39
2022/07/02 00:08:29;;;;;;;0.10;0.10;;;;;;;22.24;53.18;101841.56;5138075;27;20515;-40
2022/07/02 00:10:57;;;;;;;0.10;0.10;;;;;;;22.24;53.15;101841.56;5116779;27;20035;-40
2022/07/02 00:13:24;;;;;;;0.10;0.10;;;;;;;22.25;53.17;101839.63;5134368;27;20119;-39
2022/07/02 00:15:50;;;;;;;0.10;0.10;;;;;;;22.23;53.31;101833.50;5139464;27;20074;-40
2022/07/02 00:18:16;;;;;;;0.10;0.10;;;;;;;22.24;53.27;101840.75;5134622;27;20050;-40
2022/07/02 00:20:43;;;;;;;0.10;0.10;;;;;;;22.23;53.19;101837.09;5137139;27;20081;-41
2022/07/02 00:23:09;;;;;;;0.10;0.10;;;;;;;22.23;53.19;101833.50;5122754;27;20081;-41
2022/07/02 00:26:02;;;;;;;0.10;0.10;;;;;;;22.23;53.19;101830.72;5116686;27;20139;-40
2022/07/02 00:28:29;;;;;;;0.10;0.10;;;;;;;22.23;53.10;101831.56;5102399;28;20082;-40
2022/07/02 00:30:54;;;;;;;0.10;0.10;;;;;;;22.22;52.97;101829.91;5115876;27;20078;-40
2022/07/02 00:33:23;;;;;;;0.20;0.20;;;;;;;22.24;53.20;101833.25;5135394;27;20046;-41
2022/07/02 00:35:49;;;;;;;0.10;0.10;;;;;;;22.23;53.24;101830.72;5134311;27;20073;-41
2022/07/02 00:38:15;;;;;;;0.10;0.10;;;;;;;22.22;53.27;101832.66;5116318;27;20075;-39
2022/07/02 00:40:41;;;;;;;0.10;0.10;;;;;;;22.24;53.30;101841.56;5134136;27;20039;-41
2022/07/02 00:43:06;;;;;;;0.10;0.10;;;;;;;22.23;53.22;101839.03;5137265;27;20035;-40
2022/07/02 00:45:34;;;;;;;0.10;0.10;;;;;;;22.24;53.30;101843.50;5136659;27;20470;-41
2022/07/02 00:48:00;;;;;;;0.10;0.10;;;;;;;22.22;53.25;101829.91;5135433;27;20073;-39
2022/07/02 00:50:26;;;;;;;0.10;0.10;;;;;;;22.23;53.06;101836.28;5133364;27;20074;-41
2022/07/02 00:52:51;;;;;;;0.10;0.10;;;;;;;22.23;53.17;101827.94;5139674;27;20058;-40
2022/07/02 00:55:17;;;;;;;0.10;0.10;;;;;;;22.22;53.29;101835.44;5138748;27;20048;-40
2022/07/02 00:57:45;;;;;;;0.10;0.10;;;;;;;22.24;53.44;101826.84;5139650;27;20050;-39
2022/07/02 01:00:14;;;;;;;0.10;0.10;;;;;;;22.23;53.17;101830.72;5136720;27;20077;-41
2022/07/02 01:02:42;;;;;;;0.10;0.10;;;;;;;22.24;53.34;101837.97;5135994;27;20070;-39
2022/07/02 01:05:09;;;;;;;0.10;0.10;;;;;;;22.23;53.26;101834.31;5120625;27;20518;-40
2022/07/02 01:07:35;;;;;;;0.10;0.10;;;;;;;22.23;53.18;101834.31;5137244;27;20194;-41
2022/07/02 01:10:17;;;;;;;0.10;0.10;;;;;;;22.23;53.27;101826.00;5120600;27;20068;-40
2022/07/02 01:12:47;;;;;;;0.10;0.10;;;;;;;22.22;53.12;101824.34;5131777;27;20078;-40
2022/07/02 01:15:13;;;;;;;0.10;0.10;;;;;;;22.22;53.33;101823.53;5137033;27;20093;-40
2022/07/02 01:17:39;;;;;;;0.10;0.10;;;;;;;22.21;53.21;101822.69;5117883;28;20134;-40
2022/07/02 01:20:06;;;;;;;0.10;0.10;;;;;;;22.23;53.26;101822.41;5118000;27;20051;-39
2022/07/02 01:22:33;;;;;;;0.13;0.13;;;;;;;22.22;53.29;101818.78;5136672;27;20070;-39
2022/07/02 01:24:59;;;;;;;0.10;0.10;;;;;;;22.23;53.22;101814.91;5137457;27;20039;-40
2022/07/02 01:27:25;;;;;;;0.10;0.10;;;;;;;22.24;53.16;101813.00;5118935;27;20410;-39
2022/07/02 01:29:51;;;;;;;0.10;0.10;;;;;;;22.23;53.21;101814.91;5135202;27;20469;-39
2022/07/02 01:32:18;;;;;;;0.20;0.20;;;;;;;22.22;53.33;101816.03;5134210;27;20042;-40
2022/07/02 01:34:47;;;;;;;0.10;0.10;;;;;;;22.23;53.17;101822.41;5116719;27;20063;-39
2022/07/02 01:37:14;;;;;;;0.10;0.10;;;;;;;22.23;53.27;101819.63;5099857;27;20082;-39
2022/07/02 01:39:42;;;;;;;0.10;0.10;;;;;;;22.23;53.27;101817.69;5115212;27;20126;-40
2022/07/02 01:42:08;;;;;;;0.10;0.10;;;;;;;22.22;53.35;101816.03;5136491;27;20066;-39
2022/07/02 01:44:35;;;;;;;0.10;0.10;;;;;;;22.23;53.27;101814.06;5138709;27;20074;-40
2022/07/02 01:47:04;;;;;;;0.10;0.10;;;;;;;22.21;53.30;101817.13;5114841;27;20130;-41
2022/07/02 01:49:30;;;;;;;0.15;0.15;;;;;;;22.22;53.32;101815.19;5114417;27;20126;-38
2022/07/02 01:51:55;;;;;;;0.10;0.10;;;;;;;22.23;53.23;101819.63;5115835;27;20042;-40
2022/07/02 01:54:21;;;;;;;0.10;0.10;;;;;;;22.23;53.26;101822.41;5133665;27;20179;-41
2022/07/02 01:56:47;;;;;;;0.10;0.10;;;;;;;22.22;53.19;101816.03;5136015;27;20062;-41
2022/07/02 01:59:13;;;;;;;0.10;0.10;;;;;;;22.23;53.31;101819.63;5133643;27;20474;-41
2022/07/02 02:01:41;;;;;;;0.10;0.10;;;;;;;22.23;53.18;101826.00;5135016;27;20074;-40
2022/07/02 02:04:07;;;;;;;0.10;0.10;;;;;;;22.22;53.26;101824.34;5138136;27;20043;-40
2022/07/02 02:06:33;;;;;;;0.10;0.10;;;;;;;22.22;53.15;101826.28;5137661;27;20038;-39
2022/07/02 02:08:58;;;;;;;0.10;0.10;;;;;;;22.23;53.18;101825.19;5132253;27;20047;-40
2022/07/02 02:11:24;;;;;;;0.10;0.10;;;;;;;22.22;53.24;101824.34;5136447;27;20077;-40
2022/07/02 02:13:50;;;;;;;0.10;0.10;;;;;;;22.23;53.23;101825.19;5138375;27;20051;-40
2022/07/02 02:16:16;;;;;;;0.10;0.10;;;;;;;22.21;53.25;101833.78;5114580;27;20039;-39
2022/07/02 02:18:41;;;;;;;0.10;0.10;;;;;;;22.22;53.28;101823.53;5131246;27;20039;-40
2022/07/02 02:21:07;;;;;;;0.10;0.10;;;;;;;22.21;53.18;101825.47;5136741;27;20396;-41
2022/07/02 02:23:33;;;;;;;0.10;0.10;;;;;;;22.22;53.19;101831.84;5134456;27;20050;-39
2022/07/02 02:25:58;;;;;;;0.20;0.20;;;;;;;22.20;53.18;101826.59;5136101;27;20045;-38
2022/07/02 02:28:24;;;;;;;0.10;0.10;;;;;;;22.20;53.05;101826.59;5131039;27;20039;-41
2022/07/02 02:30:50;;;;;;;0.10;0.10;;;;;;;22.22;53.26;101827.13;5131833;27;20046;-39
2022/07/02 02:33:15;;;;;;;0.10;0.10;;;;;;;22.22;53.17;101829.91;5133798;27;20062;-38
2022/07/02 02:35:41;;;;;;;0.10;0.10;;;;;;;22.22;53.24;101826.28;5115322;27;20035;-39
2022/07/02 02:38:07;;;;;;;0.10;0.10;;;;;;;22.22;53.02;101827.13;5132063;27;20495;-42
2022/07/02 02:40:32;;;;;;;0.10;0.10;;;;;;;22.21;53.18;101830.19;5134707;27;20039;-42
2022/07/02 02:42:58;;;;;;;0.10;0.10;;;;;;;22.21;53.19;101825.47;5133049;27;20047;-39
2022/07/02 02:45:23;;;;;;;0.10;0.10;;;;;;;22.21;53.17;101828.25;5139611;27;20053;-39
2022/07/02 02:47:49;;;;;;;0.10;0.10;;;;;;;22.20;53.21;101820.22;5130029;27;20043;-39
2022/07/02 02:50:15;;;;;;;0.10;0.10;;;;;;;22.21;53.10;101824.63;5137330;27;20043;-39
2022/07/02 02:52:41;;;;;;;0.10;0.10;;;;;;;22.21;53.12;101830.19;5118064;28;20105;-39
2022/07/02 02:55:07;;;;;;;0.10;0.10;;;;;;;22.20;53.18;101826.59;5136837;27;20533;-41
2022/07/02 02:57:32;;;;;;;0.10;0.10;;;;;;;22.21;53.17;101833.78;5119707;27;20055;-41
2022/07/02 02:59:58;;;;;;;0.10;0.10;;;;;;;22.22;53.24;101837.38;5141749;27;20070;-39
2022/07/02 03:02:24;;;;;;;0.10;0.10;;;;;;;22.21;53.21;101839.34;5139606;27;20129;-40
2022/07/02 03:04:49;;;;;;;0.10;0.10;;;;;;;22.20;53.19;101831.31;5134884;27;20421;-39
2022/07/02 03:07:15;;;;;;;0.10;0.10;;;;;;;22.21;53.50;101839.34;5142513;27;20091;-41
2022/07/02 03:09:41;;;;;;;0.10;0.10;;;;;;;22.20;53.20;101846.00;5140048;27;20035;-40
2022/07/02 03:12:07;;;;;;;0.10;0.10;;;;;;;22.22;53.12;101848.50;5140347;27;20043;-40
2022/07/02 03:14:33;;;;;;;0.10;0.10;;;;;;;22.21;53.33;101841.28;5137674;27;20063;-40
2022/07/02 03:16:59;;;;;;;0.10;0.10;;;;;;;22.21;53.26;101841.28;5137014;27;20035;-40
2022/07/02 03:19:24;;;;;;;0.10;0.10;;;;;;;22.21;53.22;101849.59;5138028;27;20046;-40
2022/07/02 03:21:50;;;;;;;0.10;0.10;;;;;;;22.20;53.37;101845.19;5139635;27;20058;-41
2022/07/02 03:24:15;;;;;;;0.10;0.10;;;;;;;22.21;53.13;101849.59;5135837;27;20120;-41
2022/07/02 03:26:41;;;;;;;0.10;0.10;;;;;;;22.20;53.19;101840.47;5140299;27;20042;-41
2022/07/02 03:29:07;;;;;;;0.10;0.10;;;;;;;22.20;53.16;101847.94;5134318;27;20055;-40
2022/07/02 03:31:33;;;;;;;0.10;0.10;;;;;;;22.22;53.23;101845.72;5137973;27;20047;-41
2022/07/02 03:33:58;;;;;;;0.10;0.10;;;;;;;22.20;53.25;101857.09;5139214;27;20051;-41
2022/07/02 03:36:24;;;;;;;0.10;0.10;;;;;;;22.20;53.09;101859.88;5137388;27;20458;-41
2022/07/02 03:38:50;;;;;;;0.10;0.10;;;;;;;22.20;53.21;101856.28;5135796;27;20047;-40
2022/07/02 03:41:16;;;;;;;0.10;0.10;;;;;;;22.21;53.19;101858.75;5142326;27;20062;-41
2022/07/02 03:43:42;;;;;;;0.10;0.10;;;;;;;22.21;53.18;101855.16;5136699;27;20061;-41
2022/07/02 03:46:07;;;;;;;0.10;0.10;;;;;;;22.20;53.14;101848.78;5139824;27;20118;-41
2022/07/02 03:48:33;;;;;;;0.10;0.10;;;;;;;22.21;53.10;101855.16;5133048;27;20100;-39
2022/07/02 03:50:59;;;;;;;0.10;0.10;;;;;;;22.20;53.28;101850.72;5116786;27;20039;-41
2022/07/02 03:53:25;;;;;;;0.10;0.10;;;;;;;22.20;53.46;101846.00;5137675;27;20035;-41
2022/07/02 03:55:50;;;;;;;0.10;0.10;;;;;;;22.21;53.29;101850.44;5136603;27;20041;-40
2022/07/02 03:58:16;;;;;;;0.20;0.20;;;;;;;22.19;53.18;101841.56;5135948;27;20117;-40
2022/07/02 04:00:42;;;;;;;0.10;0.10;;;;;;;22.19;53.17;101844.34;5136658;27;20138;-39
2022/07/02 04:03:07;;;;;;;0.10;0.10;;;;;;;22.20;53.25;101846.00;5119602;27;20053;-39
2022/07/02 04:05:33;;;;;;;0.10;0.10;;;;;;;22.19;53.21;101846.25;5135992;27;20043;-40
2022/07/02 04:07:59;;;;;;;0.10;0.10;;;;;;;22.21;53.11;101858.75;5135653;27;20039;-39
2022/07/02 04:10:24;;;;;;;0.10;0.10;;;;;;;22.20;53.25;101861.81;5139803;27;20661;-39
2022/07/02 04:12:50;;;;;;;0.10;0.10;;;;;;;22.19;53.21;101855.44;5139319;27;20047;-39
2022/07/02 04:15:16;;;;;;;0.10;0.10;;;;;;;22.20;53.26;101851.56;5142240;27;20111;-39
2022/07/02 04:17:41;;;;;;;0.10;0.10;;;;;;;22.18;53.27;101855.72;5133771;27;20051;-41
2022/07/02 04:20:07;;;;;;;0.10;0.10;;;;;;;22.20;53.23;101845.19;5138532;27;20035;-40
2022/07/02 04:22:33;;;;;;;0.10;0.10;;;;;;;22.19;53.14;101851.81;5115076;27;20085;-39
2022/07/02 04:24:59;;;;;;;0.10;0.10;;;;;;;22.19;53.27;101844.34;5136856;27;20035;-39
2022/07/02 04:27:24;;;;;;;0.10;0.10;;;;;;;22.20;53.25;101850.72;5133408;27;20050;-40
2022/07/02 04:29:50;;;;;;;0.10;0.10;;;;;;;22.18;53.22;101852.94;5135901;27;20043;-39
2022/07/02 04:32:16;;;;;;;0.10;0.10;;;;;;;22.19;53.12;101857.38;5137093;27;20476;-39
2022/07/02 04:34:41;;;;;;;0.10;0.10;;;;;;;22.19;53.21;101855.44;5138858;27;20040;-39
2022/07/02 04:37:08;;;;;;;0.20;0.20;;;;;;;22.19;53.22;101858.22;5136210;27;20049;-41
2022/07/02 04:39:34;;;;;;;0.10;0.10;;;;;;;22.20;53.16;101862.66;5136905;27;20042;-39
2022/07/02 04:41:59;;;;;;;0.10;0.10;;;;;;;22.20;53.32;101865.44;5132982;27;20043;-40
2022/07/02 04:44:26;;;;;;;0.20;0.20;;;;;;;22.19;53.27;101861.00;5135664;27;20389;-39
2022/07/02 04:46:52;;;;;;;0.10;0.10;;;;;;;22.20;53.20;101856.28;5132932;27;20070;-40
2022/07/02 04:49:18;;;;;;;0.20;0.20;;;;;;;22.22;53.10;101859.59;5116970;27;20519;-37
2022/07/02 04:51:43;;;;;;;0.10;0.10;;;;;;;22.20;53.16;101847.94;5132990;27;20315;-39
2022/07/02 04:54:09;;;;;;;0.10;0.10;;;;;;;22.19;53.22;101861.00;5118777;27;20088;-41
2022/07/02 04:56:35;;;;;;;0.10;0.10;;;;;;;22.19;53.03;101857.38;5114896;27;20039;-39
2022/07/02 04:59:01;;;;;;;0.10;0.10;;;;;;;22.19;53.14;101858.22;5134429;27;20039;-41
2022/07/02 05:01:28;;;;;;;0.10;0.10;;;;;;;22.19;53.19;101861.00;5137764;27;20415;-41
2022/07/02 05:03:54;;;;;;;0.10;0.10;;;;;;;22.20;53.20;101859.88;5118902;27;20043;-40
2022/07/02 05:06:21;;;;;;;0.10;0.10;;;;;;;22.18;53.21;101852.94;5119373;27;20043;-39
2022/07/02 05:08:50;;;;;;;0.10;0.10;;;;;;;22.17;53.07;101856.81;5134909;27;20082;-39
2022/07/02 05:11:19;;;;;;;0.10;0.10;;;;;;;22.16;53.15;101852.41;5120088;27;20497;-39
2022/07/02 05:13:45;;;;;;;;;;;;;;;22.18;53.20;101855.72;5117911;27;20118;-41
2022/07/02 05:16:10;;;;;;;0.10;0.10;;;;;;;22.17;53.08;101849.31;5137729;27;19939;-41
2022/07/02 05:18:36;;;;;;;0.10;0.10;;;;;;;22.16;53.18;101850.44;5131224;27;20061;-40
2022/07/02 05:21:02;;;;;;;0.10;0.10;;;;;;;22.17;53.28;101854.03;5135142;27;20054;-39
2022/07/02 05:23:27;;;;;;;0.10;0.10;;;;;;;22.19;53.18;101851.81;5134696;27;20061;-41
2022/07/02 05:25:53;;;;;;;0.10;0.10;;;;;;;22.19;53.23;101854.59;5132404;27;20039;-37
2022/07/02 05:28:19;;;;;;;0.10;0.10;;;;;;;22.17;53.16;101854.03;5132759;27;20039;-41
2022/07/02 05:30:44;;;;;;;0.10;0.10;;;;;;;22.18;53.18;101861.25;5136203;27;20038;-39
2022/07/02 05:33:10;;;;;;;0.10;0.10;;;;;;;22.18;53.10;101858.47;5134795;27;20066;-40
2022/07/02 05:35:36;;;;;;;0.10;0.10;;;;;;;22.20;52.84;101856.28;5119823;27;20035;-39
2022/07/02 05:38:02;;;;;;;0.10;0.10;;;;;;;22.17;53.22;101857.66;5135913;27;20062;-39
2022/07/02 05:40:27;;;;;;;0.10;0.10;;;;;;;22.19;53.09;101861.00;5138553;27;20050;-39
2022/07/02 05:42:53;;;;;;;0.10;0.10;;;;;;;22.18;53.21;101864.84;5133298;27;20047;-42
2022/07/02 05:45:19;;;;;;;0.10;0.10;;;;;;;22.17;53.06;101862.38;5118045;27;20053;-39
2022/07/02 05:47:44;;;;;;;0.10;0.10;;;;;;;22.16;53.15;101858.78;5136430;27;20047;-41
2022/07/02 05:50:10;;;;;;;0.10;0.10;;;;;;;22.17;53.03;101859.59;5133470;27;20044;-41
2022/07/02 05:52:36;;;;;;;0.10;0.10;;;;;;;22.16;53.30;101866.25;5137685;27;20096;-39
2022/07/02 05:55:02;;;;;;;0.10;0.10;;;;;;;22.16;53.22;101864.31;5134407;27;20112;-39
2022/07/02 05:57:29;;;;;;;0.10;0.10;;;;;;;22.17;53.15;101871.53;5115392;27;20078;-39
2022/07/02 05:59:55;;;;;;;0.10;0.10;;;;;;;22.18;53.12;101872.34;5134569;27;20453;-39
2022/07/02 06:02:21;;;;;;;0.10;0.10;;;;;;;22.17;53.05;101877.06;5132700;27;20070;-39
2022/07/02 06:04:47;;;;;;;0.20;0.20;;;;;;;22.18;53.13;101886.22;5132149;27;20043;-39
2022/07/02 06:07:44;;;;;;;0.10;0.10;;;;;;;22.17;53.14;101881.78;5133036;27;20680;-39
2022/07/02 06:09:58;;;;;;;0.10;0.10;;;;;;;22.18;53.15;101878.72;5103559;27;20081;-39
2022/07/02 06:12:24;;;;;;;0.10;0.10;;;;;;;22.16;53.12;101886.50;5133184;27;20043;-40
2022/07/02 06:14:50;;;;;;;0.10;0.10;;;;;;;22.17;52.98;101885.41;5119994;27;20043;-39
2022/07/02 06:17:15;;;;;;;0.10;0.10;;;;;;;22.18;53.07;101883.44;5133358;27;20218;-39
2022/07/02 06:19:44;;;;;;;0.10;0.10;;;;;;;22.15;53.17;101884.84;5116512;27;20043;-39
2022/07/02 06:22:09;;;;;;;0.10;0.10;;;;;;;22.16;53.16;101886.50;5134590;27;20062;-41
2022/07/02 06:24:35;;;;;;;0.10;0.10;;;;;;;22.17;53.06;101887.34;5137504;27;20130;-41
2022/07/02 06:27:01;;;;;;;0.10;0.10;;;;;;;22.17;53.02;101898.44;5134289;27;20047;-41
2022/07/02 06:29:26;;;;;;;0.10;0.10;;;;;;;22.18;53.08;101894.56;5136641;27;20118;-40
2022/07/02 06:31:52;;;;;;;0.10;0.10;;;;;;;22.16;53.05;101894.84;5138786;27;20042;-39
2022/07/02 06:34:19;;;;;;;0.10;0.10;;;;;;;22.17;52.96;101901.22;5138377;27;20050;-41
2022/07/02 06:36:45;;;;;;;0.10;0.10;;;;;;;22.19;53.18;101893.44;5141561;27;20097;-42
2022/07/02 06:39:11;;;;;;;0.10;0.10;;;;;;;22.19;53.11;101894.28;5137243;27;20046;-41
2022/07/02 06:44:22;;;;;;;0.10;0.10;;;;;;;22.17;53.04;101887.34;5123396;27;21314;-41
2022/07/02 06:46:48;;;;;;;0.10;0.10;;;;;;;22.15;53.16;101884.84;5135104;27;20122;-38
2022/07/02 06:49:14;;;;;;;0.10;0.10;;;;;;;22.16;52.99;101891.22;5138368;27;20061;-39
2022/07/02 06:51:39;;;;;;;0.10;0.10;;;;;;;22.15;53.00;101890.41;5136320;27;20047;-39
2022/07/02 06:54:05;;;;;;;0.10;0.10;;;;;;;22.17;53.05;101893.72;5135563;27;20460;-38
2022/07/02 06:56:35;;;;;;;0.10;0.10;;;;;;;22.17;53.07;101887.34;5140935;27;20084;-39
2022/07/02 06:59:02;;;;;;;0.10;0.10;;;;;;;22.16;52.99;101889.28;5140683;27;20080;-39
2022/07/02 07:01:27;;;;;;;0.10;0.10;;;;;;;22.17;53.00;101884.56;5137564;27;20074;-39
2022/07/02 07:03:53;;;;;;;0.10;0.10;;;;;;;22.17;53.05;101881.78;5135115;27;20043;-42
2022/07/02 07:06:22;;;;;;;0.10;0.10;;;;;;;22.16;52.91;101880.97;5144549;27;20047;-39
2022/07/02 07:08:52;;;;;;;;;;;;;;;22.17;53.08;101884.56;5141622;27;20472;-39
2022/07/02 07:11:20;;;;;;;0.10;0.10;;;;;;;22.15;53.00;101879.31;5136172;27;21173;-40
2022/07/02 07:13:46;;;;;;;0.10;0.10;;;;;;;22.15;53.07;101876.53;5117456;27;20481;-40
2022/07/02 07:16:12;;;;;;;0.10;0.10;;;;;;;22.15;53.10;101879.31;5136983;27;20469;-39
2022/07/02 07:18:38;;;;;;;0.10;0.10;;;;;;;22.16;53.03;101880.13;5137441;27;20046;-39
2022/07/02 07:21:03;;;;;;;0.10;0.10;;;;;;;22.16;53.13;101885.69;5140683;27;20043;-39
2022/07/02 07:23:29;;;;;;;0.10;0.10;;;;;;;22.16;53.00;101880.13;5142373;27;20050;-39
2022/07/02 07:25:54;;;;;;;0.10;0.10;;;;;;;22.16;53.12;101878.19;5141597;27;20058;-40
2022/07/02 07:28:22;;;;;;;0.10;0.10;;;;;;;22.16;53.04;101874.59;5138389;27;20045;-37
2022/07/02 07:30:47;;;;;;;0.10;0.10;;;;;;;22.15;53.15;101870.13;5134826;27;20074;-38
2022/07/02 07:33:13;;;;;;;0.10;0.10;;;;;;;22.15;52.89;101878.44;5140790;27;20061;-39
2022/07/02 07:35:39;;;;;;;0.10;0.10;;;;;;;22.15;53.13;101870.97;5141331;27;20072;-39
2022/07/02 07:38:04;;;;;;;0.10;0.10;;;;;;;22.17;53.14;101873.47;5134026;27;20047;-40
2022/07/02 07:40:30;;;;;;;0.20;0.20;;;;;;;22.16;52.96;101880.13;5138478;27;20477;-39
2022/07/02 07:42:56;;;;;;;0.10;0.10;;;;;;;22.15;53.04;101882.09;5141997;27;20108;-40
2022/07/02 07:45:21;;;;;;;0.10;0.10;;;;;;;22.16;52.98;101880.13;5144422;27;20046;-41
2022/07/02 07:47:47;;;;;;;0.20;0.20;;;;;;;22.16;53.12;101880.97;5137550;27;20043;-39
2022/07/02 07:50:12;;;;;;;0.10;0.10;;;;;;;22.16;52.97;101877.38;5134399;27;20040;-38
2022/07/02 07:52:38;;;;;;;0.10;0.10;;;;;;;22.15;53.04;101881.22;5139093;27;20053;-38
2022/07/02 07:55:04;;;;;;;0.10;0.10;;;;;;;22.14;53.01;101874.84;5142390;27;20130;-40
2022/07/02 07:57:31;;;;;;;0.10;0.10;;;;;;;22.15;52.97;101870.97;5137729;27;20051;-39
2022/07/02 07:59:57;;;;;;;0.10;0.10;;;;;;;22.14;52.92;101871.25;5136325;27;20056;-39
2022/07/02 08:02:22;;;;;;;0.10;0.10;;;;;;;22.15;52.75;101882.09;5139466;27;20035;-39
2022/07/02 08:04:48;;;;;;;0.10;0.10;;;;;;;22.14;53.01;101885.13;5136260;27;20039;-37
2022/07/02 08:07:14;;;;;;;0.10;0.10;;;;;;;22.15;52.92;101884.00;5140572;27;20051;-39
2022/07/02 08:09:39;;;;;;;0.10;0.10;;;;;;;22.15;52.92;101876.53;5139049;27;20071;-39
2022/07/02 08:12:05;;;;;;;0.15;0.15;;;;;;;22.16;52.97;101877.38;5136544;27;20051;-42
2022/07/02 08:14:31;;;;;;;0.10;0.10;;;;;;;22.15;53.09;101876.53;5138032;27;20055;-41
2022/07/02 08:16:57;;;;;;;0.20;0.20;;;;;;;22.14;52.93;101876.78;5139439;27;20073;-39
2022/07/02 08:19:23;;;;;;;0.10;0.10;;;;;;;22.15;53.06;101870.13;5137927;27;20039;-42
2022/07/02 08:21:48;;;;;;;0.10;0.10;;;;;;;22.14;52.94;101874.84;5135890;27;20049;-38
2022/07/02 08:24:14;;;;;;;0.10;0.10;;;;;;;22.14;52.86;101872.06;5138252;27;20053;-39
2022/07/02 08:26:40;;;;;;;0.10;0.10;;;;;;;22.13;52.95;101864.88;5140284;27;20041;-39
2022/07/02 08:29:05;;;;;;;0.20;0.20;;;;;;;22.14;53.02;101865.69;5118149;27;20047;-39
2022/07/02 08:31:31;;;;;;;0.10;0.10;;;;;;;22.14;52.92;101860.16;5138475;27;20121;-39
2022/07/02 08:33:57;;;;;;;0.10;0.10;;;;;;;22.16;52.91;101863.50;5137413;27;20073;-40
2022/07/02 08:36:22;;;;;;;0.10;0.10;;;;;;;22.15;52.74;101872.91;5135670;27;20046;-39
2022/07/02 08:38:48;;;;;;;0.10;0.10;;;;;;;22.15;52.90;101859.88;5134607;27;20047;-39
2022/07/02 08:41:15;;;;;;;0.10;0.10;;;;;;;22.14;53.01;101863.75;5141612;27;20047;-37
2022/07/02 08:43:42;;;;;;;0.10;0.10;;;;;;;22.15;53.01;101856.25;5120397;27;20081;-37
2022/07/02 08:46:08;;;;;;;0.10;0.10;;;;;;;22.15;53.02;101850.72;5118575;27;20084;-38
2022/07/02 08:48:34;;;;;;;0.10;0.10;;;;;;;22.14;52.91;101851.81;5140123;27;20090;-40
2022/07/02 08:51:00;;;;;;;0.10;0.10;;;;;;;22.14;52.99;101852.66;5120346;27;20647;-39
2022/07/02 08:53:26;;;;;;;0.10;0.10;;;;;;;22.13;52.99;101848.22;5114958;27;20473;-38
2022/07/02 08:55:53;;;;;;;0.10;0.10;;;;;;;22.14;53.03;101849.06;5120547;27;20041;-39
2022/07/02 08:58:19;;;;;;;0.10;0.10;;;;;;;22.15;53.07;101845.16;5138244;27;20722;-40
2022/07/02 09:00:46;;;;;;;0.10;0.10;;;;;;;22.15;53.10;101842.38;5136181;27;20039;-37
2022/07/02 09:03:14;;;;;;;0.10;0.10;;;;;;;22.13;52.90;101848.22;5117878;27;20081;-41
2022/07/02 09:05:41;;;;;;;0.10;0.10;;;;;;;22.15;53.06;101848.78;5137727;27;20074;-39
2022/07/02 09:08:13;;;;;;;0.10;0.10;;;;;;;22.14;52.88;101847.09;5140784;27;20038;-41
2022/07/02 09:10:39;;;;;;;0.10;0.10;;;;;;;22.15;53.01;101840.47;5137468;27;20501;-39
2022/07/02 09:13:05;;;;;;;0.10;0.10;;;;;;;22.15;52.98;101848.78;5135865;27;20045;-38
2022/07/02 09:15:31;;;;;;;0.10;0.10;;;;;;;22.14;52.86;101836.00;5137024;27;20462;-39
2022/07/02 09:17:57;;;;;;;0.10;0.10;;;;;;;22.15;52.96;101842.38;5136226;27;20442;-39
2022/07/02 09:20:23;;;;;;;0.10;0.10;;;;;;;22.13;52.98;101844.63;5136622;27;20083;-39
2022/07/02 09:22:51;;;;;;;0.10;0.10;;;;;;;22.14;52.99;101833.22;5141081;27;20142;-39
2022/07/02 09:25:19;;;;;;;0.10;0.10;;;;;;;22.13;53.04;101826.03;5120586;27;20054;-39
2022/07/02 09:27:46;;;;;;;0.20;0.20;;;;;;;22.13;52.92;101827.97;5135774;27;20462;-39
2022/07/02 09:30:15;;;;;;;0.10;0.10;;;;;;;22.14;53.04;101837.94;5122140;27;20081;-39
2022/07/02 09:32:44;;;;;;;0.20;0.20;;;;;;;22.14;53.04;101832.41;5142696;27;20047;-39
2022/07/02 09:35:19;;;;;;;0.10;0.10;;;;;;;22.14;52.89;101827.69;5118726;27;20074;-39
2022/07/02 09:37:45;;;;;;;0.10;0.10;;;;;;;22.13;52.91;101823.25;5135793;27;20071;-39
2022/07/02 09:40:11;;;;;;;0.10;0.10;;;;;;;22.14;52.86;101824.91;5137619;27;20078;-40
2022/07/02 09:42:36;;;;;;;0.10;0.10;;;;;;;22.14;52.94;101830.47;5119184;27;20067;-37
2022/07/02 09:45:05;;;;;;;0.10;0.10;;;;;;;22.15;52.87;101820.19;5117183;27;20047;-38
2022/07/02 09:47:33;;;;;;;0.10;0.10;;;;;;;22.15;52.83;101811.88;5121131;27;20082;-41
2022/07/02 09:50:08;;;;;;;0.10;0.10;;;;;;;22.13;52.86;101814.94;5136119;27;20076;-39
2022/07/02 09:52:34;;;;;;;0.13;0.13;;;;;;;22.14;52.86;101822.13;5137224;27;20098;-39
2022/07/02 09:55:00;;;;;;;0.10;0.10;;;;;;;22.14;52.90;101813.81;5134863;27;20081;-41
2022/07/02 09:57:26;;;;;;;0.10;0.10;;;;;;;22.14;52.91;101807.44;5117579;27;20082;-41
2022/07/02 09:59:53;;;;;;;0.10;0.10;;;;;;;22.13;52.92;101809.38;5121000;27;20496;-41
2022/07/02 10:02:23;;;;;;;0.10;0.10;;;;;;;22.13;52.85;101812.16;5121212;27;20465;-39
2022/07/02 10:04:50;;;;;;;0.10;0.10;;;;;;;22.14;52.86;101805.50;5116534;27;20054;-41
2022/07/02 10:07:16;;;;;;;0.10;0.10;;;;;;;22.14;52.92;101804.66;5116025;27;20078;-39
2022/07/02 10:09:42;;;;;;;0.10;0.10;;;;;;;22.12;52.84;101802.19;5137994;27;20451;-41
2022/07/02 10:12:08;;;;;;;0.15;0.15;;;;;;;22.13;52.78;101784.41;5134229;27;20043;-37
2022/07/02 10:14:35;;;;;;;0.10;0.10;;;;;;;22.13;52.91;101784.41;5138388;27;21382;-38
2022/07/02 10:17:01;;;;;;;0.10;0.10;;;;;;;22.13;52.83;101791.91;5133715;27;20133;-40
2022/07/02 10:19:28;;;;;;;0.10;0.10;;;;;;;22.14;52.88;101785.25;5139686;27;20050;-39
2022/07/02 10:21:54;;;;;;;0.10;0.10;;;;;;;22.13;52.87;101780.81;5133049;27;20067;-39
2022/07/02 10:24:24;;;;;;;0.10;0.10;;;;;;;22.13;52.86;101770.53;5136056;27;20491;-38
2022/07/02 10:26:49;;;;;;;0.10;0.10;;;;;;;22.14;52.78;101776.91;5140235;27;20070;-40
2022/07/02 10:29:17;;;;;;;0.10;0.10;;;;;;;22.13;52.78;101776.09;5135820;27;20436;-39
2022/07/02 10:31:49;;;;;;;0.10;0.10;;;;;;;22.14;52.86;101772.19;5121031;27;20070;-41
2022/07/02 10:34:29;;;;;;;0.10;0.10;;;;;;;22.14;52.75;101772.19;5117854;27;20118;-41
2022/07/02 10:36:56;;;;;;;0.10;0.10;;;;;;;22.14;52.81;101761.09;5114080;28;20120;-39
2022/07/02 10:39:22;;;;;;;0.10;0.10;;;;;;;22.13;52.91;101755.84;5138013;27;20042;-41
2022/07/02 10:41:48;;;;;;;0.10;0.10;;;;;;;22.12;53.03;101760.56;5132518;27;20107;-39
2022/07/02 10:44:13;;;;;;;0.10;0.10;;;;;;;22.13;52.93;101751.13;5134471;27;20076;-39
2022/07/02 10:46:39;;;;;;;0.10;0.10;;;;;;;22.14;52.94;101754.72;5111704;27;20058;-39
2022/07/02 10:49:05;;;;;;;0.10;0.10;;;;;;;22.13;52.77;101753.91;5136724;27;20046;-39
2022/07/02 10:51:33;;;;;;;0.10;0.10;;;;;;;22.13;52.70;101745.56;5135143;27;20034;-39
2022/07/02 10:54:00;;;;;;;;;;;;;;;22.12;52.92;101746.69;5139080;27;20095;-40
2022/07/02 10:56:28;;;;;;;0.10;0.10;;;;;;;22.12;52.83;101745.84;5116665;27;19973;-39
2022/07/02 10:58:53;;;;;;;0.10;0.10;;;;;;;22.13;52.90;101744.75;5117375;28;20085;-39
2022/07/02 11:01:21;;;;;;;0.10;0.10;;;;;;;22.12;53.03;101741.16;5135684;27;20043;-39
2022/07/02 11:06:31;;;;;;;0.10;0.10;;;;;;;22.13;52.93;101739.19;5162053;27;20198;-41
2022/07/02 11:08:59;;;;;;;0.10;0.10;;;;;;;22.13;52.81;101736.44;5146183;27;20481;-39
2022/07/02 11:11:46;;;;;;;0.10;0.10;;;;;;;22.13;52.82;101734.47;5127881;27;20461;-41
2022/07/02 11:14:15;;;;;;;0.10;0.10;;;;;;;22.12;52.93;101735.59;5145713;27;20496;-41
2022/07/02 11:16:48;;;;;;;0.10;0.10;;;;;;;22.13;52.92;101733.66;5145704;27;20075;-39
2022/07/02 11:19:17;;;;;;;0.10;0.10;;;;;;;22.13;52.78;101737.25;5148525;27;20046;-39
2022/07/02 11:21:44;;;;;;;0.10;0.10;;;;;;;22.13;52.78;101734.47;5128798;27;20405;-37
2022/07/02 11:24:10;;;;;;;0.10;0.10;;;;;;;22.13;52.90;101730.88;5147127;27;20492;-41
2022/07/02 11:26:40;;;;;;;0.10;0.10;;;;;;;22.13;52.90;101726.16;5147354;27;20039;-41
2022/07/02 11:29:06;;;;;;;0.10;0.10;;;;;;;22.13;52.86;101728.94;5131180;27;20374;-39